Time;durP1;ratioP1;P1;durP2;ratioP2;P2;SDS_P1;SDS_P2;PMS_P1;PMS_P2;Temp;Humidity;BMP_temperature;BMP_pressure;BME280_temperature;BME280_humidity;BME280_pressure;Samples;Min_cycle;Max_cycle;Signal;HPM_P1;HPM_P2
2023/04/21 00:00:17;;;;;;;5.78;3.47;;;11.50;69.70;;;;;;5008637;28;20491;-70
2023/04/21 00:02:45;;;;;;;4.18;2.80;;;11.50;69.80;;;;;;5008256;28;20069;-70
2023/04/21 00:05:12;;;;;;;5.50;3.47;;;11.50;70.20;;;;;;5008530;28;20037;-70
2023/04/21 00:07:39;;;;;;;7.82;4.32;;;11.60;70.30;;;;;;5008669;28;20425;-69
2023/04/21 00:10:09;;;;;;;6.90;3.45;;;11.60;70.60;;;;;;4986948;28;20026;-69
2023/04/21 00:12:35;;;;;;;5.80;4.10;;;11.60;70.70;;;;;;5007230;28;20566;-68
2023/04/21 00:15:01;;;;;;;5.90;3.45;;;11.60;71.10;;;;;;5000408;28;20101;-70
2023/04/21 00:17:27;;;;;;;10.30;4.72;;;11.60;71.20;;;;;;4999346;28;20030;-70
2023/04/21 00:19:53;;;;;;;10.88;4.50;;;11.60;71.40;;;;;;5009205;28;20594;-70
2023/04/21 00:22:20;;;;;;;6.82;4.15;;;11.60;71.80;;;;;;5005746;28;20030;-73
2023/04/21 00:24:46;;;;;;;7.57;3.90;;;11.60;71.60;;;;;;5008556;28;20032;-70
2023/04/21 00:27:12;;;;;;;7.90;4.57;;;11.60;71.80;;;;;;5007414;28;20030;-69
2023/04/21 00:29:39;;;;;;;6.95;3.83;;;11.60;71.90;;;;;;5009308;28;20053;-69
2023/04/21 00:32:08;;;;;;;4.00;3.50;;;11.60;72.10;;;;;;5006409;28;20096;-67
2023/04/21 00:34:34;;;;;;;9.13;4.40;;;11.70;72.20;;;;;;5001662;28;20465;-66
2023/04/21 00:37:00;;;;;;;8.88;4.18;;;11.70;72.30;;;;;;5006804;28;20034;-67
2023/04/21 00:39:25;;;;;;;5.63;4.20;;;11.60;72.40;;;;;;5004458;28;20037;-68
2023/04/21 00:41:51;;;;;;;6.40;3.78;;;11.60;72.70;;;;;;5002403;28;20046;-67
2023/04/21 00:44:17;;;;;;;6.53;3.78;;;11.60;73.00;;;;;;4991886;28;20034;-68
2023/04/21 00:46:42;;;;;;;6.38;4.18;;;11.60;73.00;;;;;;4989640;28;20117;-70
2023/04/21 00:49:08;;;;;;;6.18;3.47;;;11.60;73.00;;;;;;5008329;28;20082;-70
2023/04/21 00:51:35;;;;;;;8.18;4.63;;;11.60;73.20;;;;;;4985273;28;20034;-70
2023/04/21 00:54:04;;;;;;;6.15;3.35;;;11.50;73.50;;;;;;5009207;28;20065;-70
2023/04/21 00:56:31;;;;;;;7.30;4.65;;;11.50;73.40;;;;;;5001049;28;20125;-69
2023/04/21 00:59:01;;;;;;;11.93;4.93;;;11.50;73.50;;;;;;5010646;28;20034;-70
2023/04/21 01:01:31;;;;;;;7.22;3.67;;;11.50;73.60;;;;;;4986035;28;20030;-70
2023/04/21 01:03:58;;;;;;;7.15;3.67;;;11.50;73.80;;;;;;5010549;28;20389;-70
2023/04/21 01:06:27;;;;;;;11.10;5.05;;;11.50;74.10;;;;;;4988599;28;20108;-71
2023/04/21 01:08:54;;;;;;;8.13;4.68;;;11.50;74.30;;;;;;5002574;28;20084;-70
2023/04/21 01:11:20;;;;;;;6.13;3.80;;;11.50;74.30;;;;;;5009067;28;20026;-70
2023/04/21 01:13:46;;;;;;;5.97;3.63;;;11.50;74.30;;;;;;5005079;28;20365;-70
2023/04/21 01:16:17;;;;;;;6.93;4.13;;;11.60;74.40;;;;;;4993005;28;20022;-70
2023/04/21 01:18:46;;;;;;;7.90;4.85;;;11.60;74.40;;;;;;5008203;28;20113;-73
2023/04/21 01:21:13;;;;;;;8.05;4.25;;;11.60;74.70;;;;;;5008339;28;20068;-71
2023/04/21 01:23:42;;;;;;;8.23;3.53;;;11.60;74.70;;;;;;4993379;28;20030;-71
2023/04/21 01:26:08;;;;;;;8.15;4.20;;;11.60;74.60;;;;;;5011853;28;20432;-72
2023/04/21 01:28:35;;;;;;;8.95;4.30;;;11.60;74.70;;;;;;5012841;28;20030;-71
2023/04/21 01:31:00;;;;;;;4.95;3.95;;;11.60;74.80;;;;;;5012218;28;20033;-71
2023/04/21 01:33:27;;;;;;;6.05;4.00;;;11.50;74.80;;;;;;5009327;28;20022;-69
2023/04/21 01:35:52;;;;;;;7.20;4.15;;;11.50;74.90;;;;;;4989405;28;20711;-69
2023/04/21 01:38:18;;;;;;;5.82;3.40;;;11.60;75.00;;;;;;5010713;28;20022;-69
2023/04/21 01:40:49;;;;;;;6.88;4.82;;;11.60;75.00;;;;;;4990678;28;20501;-70
2023/04/21 01:43:17;;;;;;;7.07;4.63;;;11.60;75.10;;;;;;5009598;28;20053;-69
2023/04/21 01:45:43;;;;;;;7.25;3.83;;;11.60;75.30;;;;;;4993052;28;20030;-69
2023/04/21 01:48:09;;;;;;;9.13;5.15;;;11.60;75.40;;;;;;5012144;28;20030;-68
2023/04/21 01:50:35;;;;;;;6.47;4.32;;;11.50;75.50;;;;;;5009460;28;20033;-68
2023/04/21 01:53:00;;;;;;;7.60;3.88;;;11.50;75.80;;;;;;5010920;28;20022;-68
2023/04/21 01:55:26;;;;;;;7.50;4.88;;;11.50;75.90;;;;;;4992592;28;20033;-68
2023/04/21 01:57:52;;;;;;;7.88;4.05;;;11.50;75.90;;;;;;5009831;28;20040;-68
2023/04/21 02:00:18;;;;;;;6.10;3.85;;;11.50;75.80;;;;;;5010303;28;20047;-68
2023/04/21 02:02:43;;;;;;;8.25;4.00;;;11.60;75.80;;;;;;5007319;28;20034;-68
2023/04/21 02:05:09;;;;;;;10.57;5.00;;;11.60;76.00;;;;;;5008917;28;20034;-68
2023/04/21 02:07:35;;;;;;;9.57;3.85;;;11.60;75.90;;;;;;5009031;28;20092;-68
2023/04/21 02:10:00;;;;;;;7.78;4.10;;;11.60;76.00;;;;;;5006857;28;20026;-69
2023/04/21 02:12:26;;;;;;;7.20;5.10;;;11.60;76.10;;;;;;5008847;28;20045;-68
2023/04/21 02:14:52;;;;;;;6.10;3.95;;;11.60;76.10;;;;;;5010317;28;20045;-69
2023/04/21 02:17:18;;;;;;;9.10;5.00;;;11.60;76.10;;;;;;5008614;28;20045;-68
2023/04/21 02:19:44;;;;;;;5.82;3.90;;;11.60;76.20;;;;;;5006795;28;20085;-69
2023/04/21 02:22:11;;;;;;;8.38;4.35;;;11.60;76.20;;;;;;5005573;28;20120;-68
2023/04/21 02:24:37;;;;;;;8.85;4.30;;;11.60;76.40;;;;;;5010423;28;20122;-69
2023/04/21 02:27:03;;;;;;;5.28;3.42;;;11.60;76.30;;;;;;5010130;28;20080;-68
2023/04/21 02:29:29;;;;;;;7.35;4.57;;;11.60;76.30;;;;;;5008825;28;20025;-69
2023/04/21 02:31:55;;;;;;;8.32;4.68;;;11.60;76.50;;;;;;5006995;28;20402;-71
2023/04/21 02:34:21;;;;;;;6.35;4.00;;;11.60;76.50;;;;;;5004836;28;20042;-72
2023/04/21 02:36:46;;;;;;;9.02;5.13;;;11.60;76.70;;;;;;4972278;28;20036;-71
2023/04/21 02:39:12;;;;;;;7.47;4.45;;;11.60;76.70;;;;;;5011311;28;20120;-70
2023/04/21 02:41:38;;;;;;;10.13;4.57;;;11.60;76.80;;;;;;5004752;28;20079;-71
2023/04/21 02:44:04;;;;;;;5.97;3.70;;;11.60;76.70;;;;;;4991410;28;20017;-71
2023/04/21 02:46:30;;;;;;;5.03;3.55;;;11.50;76.70;;;;;;4992553;28;20493;-71
2023/04/21 02:48:56;;;;;;;6.30;4.07;;;11.50;76.80;;;;;;5010573;28;20061;-71
2023/04/21 02:51:22;;;;;;;4.68;3.10;;;11.50;76.90;;;;;;5001429;28;20189;-71
2023/04/21 02:53:47;;;;;;;6.28;3.28;;;11.50;76.90;;;;;;5010801;28;20033;-71
2023/04/21 02:56:13;;;;;;;5.72;3.70;;;11.50;76.90;;;;;;5007158;28;20436;-71
2023/04/21 02:58:39;;;;;;;6.72;4.22;;;11.50;76.90;;;;;;4992232;28;20117;-71
2023/04/21 03:01:05;;;;;;;6.10;3.65;;;11.50;77.00;;;;;;5010020;28;20030;-72
2023/04/21 03:03:31;;;;;;;6.70;3.63;;;11.50;77.10;;;;;;5010554;28;20042;-71
2023/04/21 03:05:57;;;;;;;5.88;4.05;;;11.50;77.10;;;;;;5008086;28;20034;-69
2023/04/21 03:08:23;;;;;;;5.38;3.33;;;11.50;77.10;;;;;;5002451;28;20401;-69
2023/04/21 03:10:48;;;;;;;7.75;3.97;;;11.50;77.00;;;;;;5007935;28;20046;-69
2023/04/21 03:13:15;;;;;;;7.47;4.65;;;11.50;77.00;;;;;;5008842;28;20026;-69
2023/04/21 03:15:40;;;;;;;7.55;4.07;;;11.50;77.00;;;;;;5009912;28;20073;-69
2023/04/21 03:18:06;;;;;;;6.97;4.20;;;11.60;77.20;;;;;;5009364;28;20066;-69
2023/04/21 03:20:32;;;;;;;6.38;3.63;;;11.50;77.20;;;;;;5006787;28;20420;-69
2023/04/21 03:22:57;;;;;;;6.20;4.32;;;11.50;77.30;;;;;;5007737;28;20508;-69
2023/04/21 03:25:23;;;;;;;4.97;3.38;;;11.50;77.40;;;;;;5010016;28;20060;-69
2023/04/21 03:27:49;;;;;;;7.15;3.50;;;11.50;77.40;;;;;;5008346;28;20033;-72
2023/04/21 03:30:15;;;;;;;7.80;3.65;;;11.50;77.30;;;;;;5007360;28;20022;-72
2023/04/21 03:32:40;;;;;;;6.93;3.88;;;11.50;77.30;;;;;;4990644;28;20416;-72
2023/04/21 03:35:06;;;;;;;5.70;3.33;;;11.50;77.40;;;;;;5001208;28;20029;-72
2023/04/21 03:37:32;;;;;;;9.27;5.05;;;11.50;77.40;;;;;;5009661;28;20112;-69
2023/04/21 03:39:58;;;;;;;7.85;4.85;;;11.50;77.40;;;;;;5007219;28;20080;-71
2023/04/21 03:42:25;;;;;;;6.03;4.32;;;11.50;77.30;;;;;;5005220;28;20045;-69
2023/04/21 03:44:50;;;;;;;6.25;3.97;;;11.40;78.00;;;;;;4983947;28;20153;-72
2023/04/21 03:47:16;;;;;;;6.38;4.28;;;11.40;77.50;;;;;;5007162;28;20124;-72
2023/04/21 03:49:42;;;;;;;8.23;4.72;;;11.50;77.40;;;;;;5008700;28;20065;-72
2023/04/21 03:52:07;;;;;;;5.68;3.97;;;11.50;77.40;;;;;;5008911;28;20065;-72
2023/04/21 03:54:33;;;;;;;7.90;5.60;;;11.40;77.30;;;;;;5010432;28;20109;-71
2023/04/21 03:56:59;;;;;;;9.00;4.30;;;11.50;77.40;;;;;;5005726;28;20030;-71
2023/04/21 03:59:25;;;;;;;8.98;4.80;;;11.50;77.40;;;;;;5005062;28;20453;-71
2023/04/21 04:01:50;;;;;;;7.10;5.00;;;11.50;77.50;;;;;;5007423;28;20152;-71
2023/04/21 04:04:16;;;;;;;9.32;4.30;;;11.50;77.40;;;;;;5002455;28;20500;-71
2023/04/21 04:06:42;;;;;;;10.13;4.80;;;11.50;77.40;;;;;;5009466;28;20400;-71
2023/04/21 04:09:07;;;;;;;8.60;5.28;;;11.50;77.40;;;;;;4992076;28;20384;-71
2023/04/21 04:11:33;;;;;;;7.55;4.60;;;11.50;77.60;;;;;;5008665;28;20109;-69
2023/04/21 04:13:59;;;;;;;5.50;4.00;;;11.50;77.60;;;;;;5001899;28;20068;-69
2023/04/21 04:16:33;;;;;;;6.72;4.20;;;11.50;77.50;;;;;;5003081;28;20080;-69
2023/04/21 04:18:59;;;;;;;8.15;5.40;;;11.50;77.40;;;;;;5006858;28;20393;-69
2023/04/21 04:21:26;;;;;;;6.88;4.90;;;11.50;77.50;;;;;;4988637;28;20022;-69
2023/04/21 04:23:52;;;;;;;7.05;4.57;;;11.50;77.40;;;;;;4987862;28;20099;-69
2023/04/21 04:26:17;;;;;;;9.77;3.83;;;11.50;77.40;;;;;;5006612;28;20065;-71
2023/04/21 04:28:43;;;;;;;8.23;4.60;;;11.50;77.40;;;;;;5008656;28;20542;-71
2023/04/21 04:31:12;;;;;;;9.70;6.05;;;11.50;77.50;;;;;;4989330;28;20037;-72
2023/04/21 04:33:41;;;;;;;9.48;5.40;;;11.50;77.60;;;;;;4997712;28;20540;-71
2023/04/21 04:36:07;;;;;;;7.35;5.20;;;11.50;77.60;;;;;;5014794;28;20030;-71
2023/04/21 04:38:36;;;;;;;7.18;4.85;;;11.50;77.70;;;;;;5013818;28;20108;-72
2023/04/21 04:41:03;;;;;;;8.38;5.15;;;11.50;77.70;;;;;;5015359;28;20030;-72
2023/04/21 04:43:32;;;;;;;8.93;4.15;;;11.50;77.80;;;;;;5013692;28;20568;-72
2023/04/21 04:45:58;;;;;;;8.23;4.32;;;11.50;77.80;;;;;;5015157;28;20497;-72
2023/04/21 04:48:24;;;;;;;9.60;4.50;;;11.50;77.90;;;;;;5013856;28;20157;-69
2023/04/21 04:50:50;;;;;;;8.60;5.32;;;11.50;77.90;;;;;;5015184;28;20477;-72
2023/04/21 04:53:16;;;;;;;8.30;4.57;;;11.50;77.90;;;;;;5007396;28;20025;-72
2023/04/21 04:55:42;;;;;;;12.45;5.63;;;11.50;77.80;;;;;;5011285;28;20036;-72
2023/04/21 04:58:07;;;;;;;7.53;4.78;;;11.50;77.70;;;;;;5015988;28;20034;-72
2023/04/21 05:00:35;;;;;;;8.15;4.93;;;11.50;77.70;;;;;;5014209;28;20456;-69
2023/04/21 05:03:01;;;;;;;9.38;4.72;;;11.50;77.80;;;;;;5013927;28;20393;-69
2023/04/21 05:05:27;;;;;;;9.25;5.15;;;11.50;77.70;;;;;;5008503;28;20044;-69
2023/04/21 05:07:52;;;;;;;6.82;3.95;;;11.50;77.70;;;;;;5015637;28;20045;-72
2023/04/21 05:10:18;;;;;;;9.32;5.10;;;11.50;77.70;;;;;;5015890;28;20026;-72
2023/04/21 05:12:44;;;;;;;33.60;4.93;;;11.60;77.80;;;;;;4978830;28;20030;-70
2023/04/21 05:15:10;;;;;;;9.52;5.47;;;11.60;77.80;;;;;;5002610;28;20030;-71
2023/04/21 05:17:35;;;;;;;9.25;5.03;;;11.60;77.90;;;;;;5012708;28;20116;-72
2023/04/21 05:20:03;;;;;;;8.73;5.05;;;11.50;78.00;;;;;;5015342;28;20034;-71
2023/04/21 05:22:29;;;;;;;7.65;4.35;;;11.50;78.10;;;;;;5010825;28;20022;-69
2023/04/21 05:24:55;;;;;;;6.75;4.63;;;11.50;78.00;;;;;;5004470;28;20041;-69
2023/04/21 05:27:20;;;;;;;8.70;4.97;;;11.50;78.10;;;;;;5007477;28;20031;-69
2023/04/21 05:29:46;;;;;;;9.93;4.95;;;11.50;78.40;;;;;;5014519;28;20053;-69
2023/04/21 05:32:12;;;;;;;6.47;4.88;;;11.50;78.40;;;;;;5013859;28;20033;-69
2023/04/21 05:34:38;;;;;;;8.30;4.90;;;11.50;78.20;;;;;;4995087;28;20082;-69
2023/04/21 05:37:03;;;;;;;7.45;5.20;;;11.50;78.20;;;;;;4994974;28;20037;-69
2023/04/21 05:39:29;;;;;;;6.00;4.63;;;11.60;78.20;;;;;;5013371;28;20116;-69
2023/04/21 05:41:55;;;;;;;7.03;4.20;;;11.60;78.10;;;;;;5014215;28;20026;-69
2023/04/21 05:44:21;;;;;;;8.55;5.30;;;11.60;78.00;;;;;;5008698;28;20030;-69
2023/04/21 05:46:46;;;;;;;6.82;4.30;;;11.60;78.10;;;;;;5007440;28;20050;-72
2023/04/21 05:49:12;;;;;;;7.00;4.03;;;11.70;78.00;;;;;;4977482;28;20080;-72
2023/04/21 05:51:38;;;;;;;8.52;3.60;;;11.70;78.00;;;;;;4992474;28;20409;-71
2023/04/21 05:54:03;;;;;;;8.07;4.50;;;11.70;78.00;;;;;;5011210;28;20088;-72
2023/04/21 05:56:29;;;;;;;7.93;4.35;;;11.70;78.00;;;;;;5012265;28;20029;-72
2023/04/21 05:58:55;;;;;;;7.28;4.15;;;11.70;78.00;;;;;;5009562;28;20026;-72
2023/04/21 06:01:20;;;;;;;6.82;4.07;;;11.70;78.10;;;;;;4993309;28;20103;-72
2023/04/21 06:03:48;;;;;;;6.15;3.58;;;11.80;78.20;;;;;;5009383;28;20049;-72
2023/04/21 06:06:14;;;;;;;6.43;4.40;;;11.80;78.20;;;;;;4997822;28;20474;-71
2023/04/21 06:08:40;;;;;;;6.95;4.75;;;11.80;78.30;;;;;;5004221;28;20037;-72
2023/04/21 06:11:06;;;;;;;7.65;3.85;;;11.80;78.10;;;;;;5011245;28;20105;-72
2023/04/21 06:13:31;;;;;;;7.10;4.30;;;11.80;78.10;;;;;;5010261;28;20034;-71
2023/04/21 06:15:57;;;;;;;6.22;3.83;;;11.90;78.10;;;;;;4978763;28;20029;-72
2023/04/21 06:18:25;;;;;;;8.20;4.30;;;11.90;78.00;;;;;;5005957;28;20029;-72
2023/04/21 06:20:54;;;;;;;6.68;4.50;;;11.90;78.00;;;;;;5010260;28;20121;-72
2023/04/21 06:23:20;;;;;;;6.80;4.65;;;12.00;78.00;;;;;;5010515;28;20026;-72
2023/04/21 06:25:46;;;;;;;7.05;4.53;;;12.00;78.00;;;;;;5009124;28;20041;-72
2023/04/21 06:28:12;;;;;;;7.30;4.68;;;12.10;78.10;;;;;;5007332;28;20033;-72
2023/04/21 06:30:38;;;;;;;8.25;4.57;;;12.10;78.10;;;;;;4985254;28;20061;-72
2023/04/21 06:33:05;;;;;;;6.10;3.55;;;12.10;78.00;;;;;;5010407;28;20017;-72
2023/04/21 06:35:31;;;;;;;7.53;4.60;;;12.20;78.00;;;;;;5007456;28;20026;-69
2023/04/21 06:37:56;;;;;;;8.20;4.65;;;12.20;78.00;;;;;;4992234;28;20037;-70
2023/04/21 06:40:22;;;;;;;8.23;4.22;;;12.20;78.00;;;;;;4993578;28;20104;-70
2023/04/21 06:42:48;;;;;;;8.45;4.93;;;12.30;78.10;;;;;;5010510;28;20408;-69
2023/04/21 06:45:13;;;;;;;7.40;4.88;;;12.30;78.20;;;;;;5007065;28;20114;-69
2023/04/21 06:47:39;;;;;;;6.65;4.38;;;12.30;78.10;;;;;;5010162;28;20034;-69
2023/04/21 06:50:06;;;;;;;6.05;3.78;;;12.40;78.20;;;;;;5009734;28;20113;-69
2023/04/21 06:52:32;;;;;;;5.63;4.07;;;12.40;78.30;;;;;;5007063;28;20037;-69
2023/04/21 06:54:57;;;;;;;6.45;4.63;;;12.40;78.20;;;;;;5008485;28;20025;-69
2023/04/21 06:57:23;;;;;;;7.47;4.60;;;12.50;78.30;;;;;;5006798;28;20038;-69
2023/04/21 06:59:52;;;;;;;7.95;4.50;;;12.50;78.50;;;;;;4988354;28;20030;-69
2023/04/21 07:02:17;;;;;;;7.88;4.85;;;12.50;78.10;;;;;;5002724;28;20033;-70
2023/04/21 07:04:43;;;;;;;6.57;3.85;;;12.60;78.20;;;;;;5008543;28;20049;-71
2023/04/21 07:07:09;;;;;;;9.05;4.22;;;12.60;78.10;;;;;;4983239;28;20044;-71
2023/04/21 07:09:35;;;;;;;6.53;4.28;;;12.60;78.00;;;;;;4978649;28;20022;-71
2023/04/21 07:12:01;;;;;;;7.00;4.55;;;12.60;78.10;;;;;;4984839;28;20030;-71
2023/04/21 07:14:27;;;;;;;6.88;3.40;;;12.50;78.10;;;;;;5009950;28;20042;-72
2023/04/21 07:16:54;;;;;;;10.20;4.85;;;12.60;78.10;;;;;;5011274;28;20107;-69
2023/04/21 07:19:19;;;;;;;8.75;5.07;;;12.60;78.10;;;;;;4989989;28;20521;-69
2023/04/21 07:21:45;;;;;;;8.63;5.25;;;12.60;78.10;;;;;;5008214;28;20069;-69
2023/04/21 07:24:11;;;;;;;6.90;4.28;;;12.60;78.00;;;;;;4975573;28;20034;-69
2023/04/21 07:26:36;;;;;;;6.43;3.85;;;12.60;78.00;;;;;;5010019;28;20045;-69
2023/04/21 07:29:02;;;;;;;8.38;4.82;;;12.70;78.10;;;;;;4975007;28;20034;-69
2023/04/21 07:31:28;;;;;;;4.93;3.38;;;12.70;78.10;;;;;;5009932;28;20113;-69
2023/04/21 07:33:53;;;;;;;12.15;5.28;;;12.70;78.10;;;;;;5005704;28;20058;-69
2023/04/21 07:36:19;;;;;;;7.18;4.55;;;12.70;78.20;;;;;;5003764;28;20026;-70
2023/04/21 07:38:45;;;;;;;8.00;4.38;;;12.70;78.20;;;;;;4987241;28;20088;-69
2023/04/21 07:41:11;;;;;;;5.90;4.05;;;12.80;78.40;;;;;;4990233;28;20026;-69
2023/04/21 07:43:37;;;;;;;6.57;3.70;;;12.80;78.20;;;;;;5004765;28;20093;-69
2023/04/21 07:46:03;;;;;;;9.15;4.13;;;12.90;78.10;;;;;;5009918;28;20558;-69
2023/04/21 07:48:28;;;;;;;7.65;4.60;;;13.00;78.00;;;;;;5005114;28;20362;-72
2023/04/21 07:50:54;;;;;;;6.32;3.67;;;13.00;77.90;;;;;;5003834;28;20048;-71
2023/04/21 07:53:20;;;;;;;8.15;4.65;;;13.10;77.90;;;;;;5008842;28;20029;-68
2023/04/21 07:55:45;;;;;;;5.68;4.40;;;13.20;77.80;;;;;;5001634;28;20517;-71
2023/04/21 07:58:12;;;;;;;7.80;4.15;;;13.20;77.60;;;;;;4986025;28;20037;-70
2023/04/21 08:00:38;;;;;;;6.20;4.43;;;13.30;77.70;;;;;;5003831;28;20041;-68
2023/04/21 08:03:04;;;;;;;6.60;4.05;;;13.40;77.60;;;;;;5008056;28;20030;-71
2023/04/21 08:05:31;;;;;;;9.15;5.50;;;13.40;77.40;;;;;;4990420;28;20129;-66
2023/04/21 08:07:57;;;;;;;8.50;4.85;;;13.40;77.40;;;;;;5003259;28;20487;-68
2023/04/21 08:10:22;;;;;;;6.22;3.72;;;13.40;77.50;;;;;;4991647;28;20524;-69
2023/04/21 08:12:49;;;;;;;9.57;4.00;;;13.50;77.60;;;;;;5007024;28;20124;-69
2023/04/21 08:15:15;;;;;;;5.82;4.18;;;13.50;77.50;;;;;;4989116;28;20758;-70
2023/04/21 08:17:41;;;;;;;6.60;4.60;;;13.50;77.50;;;;;;5012616;28;20401;-68
2023/04/21 08:20:08;;;;;;;7.35;4.15;;;13.50;77.50;;;;;;5004310;28;20037;-67
2023/04/21 08:22:35;;;;;;;6.85;4.70;;;13.50;77.50;;;;;;5009274;28;20041;-68
2023/04/21 08:25:02;;;;;;;6.60;3.97;;;13.60;77.60;;;;;;5004288;28;20477;-72
2023/04/21 08:27:28;;;;;;;7.57;4.15;;;13.60;77.70;;;;;;4989040;28;20018;-71
2023/04/21 08:29:54;;;;;;;8.10;5.05;;;13.60;77.60;;;;;;5004468;28;20045;-71
2023/04/21 08:32:23;;;;;;;5.20;3.42;;;13.60;77.50;;;;;;5005575;28;20117;-71
2023/04/21 08:34:52;;;;;;;5.28;3.72;;;13.70;77.50;;;;;;4994708;28;20026;-70
2023/04/21 08:37:19;;;;;;;5.50;3.20;;;13.80;77.50;;;;;;5007805;28;20397;-69
2023/04/21 08:39:46;;;;;;;7.82;4.53;;;13.80;77.30;;;;;;5004269;28;20393;-71
2023/04/21 08:42:16;;;;;;;6.88;4.28;;;13.90;77.30;;;;;;5005165;28;20030;-68
2023/04/21 08:44:42;;;;;;;6.38;3.97;;;14.00;77.20;;;;;;5000840;28;20033;-69
2023/04/21 08:47:10;;;;;;;6.63;3.88;;;14.00;77.10;;;;;;5003905;28;20053;-70
2023/04/21 08:49:38;;;;;;;6.47;4.32;;;14.10;77.00;;;;;;4999775;28;20065;-69
2023/04/21 08:52:04;;;;;;;7.63;4.47;;;14.20;76.60;;;;;;5001416;28;20015;-69
2023/04/21 08:54:30;;;;;;;8.10;4.05;;;14.20;76.50;;;;;;4998100;28;20563;-69
2023/04/21 08:56:56;;;;;;;5.85;3.80;;;14.30;76.50;;;;;;5002663;28;20057;-69
2023/04/21 08:59:22;;;;;;;6.05;3.58;;;14.40;76.50;;;;;;5005953;28;20034;-69
2023/04/21 09:02:16;;;;;;;8.93;4.38;;;14.50;76.50;;;;;;5006348;28;20386;-69
2023/04/21 09:04:43;;;;;;;8.82;5.90;;;14.70;76.20;;;;;;5006403;28;20045;-69
2023/04/21 09:07:09;;;;;;;11.63;5.93;;;14.80;75.90;;;;;;5008057;28;20038;-69
2023/04/21 09:09:52;;;;;;;8.85;5.53;;;15.00;75.80;;;;;;5007417;28;20030;-69
2023/04/21 09:12:18;;;;;;;11.77;6.45;;;15.30;75.40;;;;;;5005691;28;20393;-69
2023/04/21 09:14:44;;;;;;;6.90;4.75;;;15.40;75.20;;;;;;5000969;28;20073;-68
2023/04/21 09:17:10;;;;;;;10.07;5.57;;;15.50;74.90;;;;;;5005640;28;20431;-70
2023/04/21 09:19:36;;;;;;;12.57;5.93;;;15.50;74.90;;;;;;4987422;28;20061;-69
2023/04/21 09:22:02;;;;;;;9.00;4.47;;;15.40;74.90;;;;;;5010570;28;20401;-71
2023/04/21 09:24:29;;;;;;;6.43;3.85;;;15.30;74.90;;;;;;4993798;28;20026;-71
2023/04/21 09:26:55;;;;;;;11.57;5.50;;;15.20;75.00;;;;;;5007138;28;20129;-70
2023/04/21 09:29:27;;;;;;;12.10;4.55;;;15.20;75.10;;;;;;5004456;28;20113;-69
2023/04/21 09:31:53;;;;;;;6.75;4.53;;;15.10;75.20;;;;;;5009501;28;20124;-70
2023/04/21 09:34:21;;;;;;;6.43;3.97;;;15.10;75.20;;;;;;5004546;28;20168;-70
2023/04/21 09:36:47;;;;;;;8.48;4.30;;;15.10;75.20;;;;;;5007134;28;20103;-71
2023/04/21 09:39:13;;;;;;;5.95;3.95;;;15.00;75.20;;;;;;5007765;28;20036;-71
2023/04/21 09:41:39;;;;;;;8.55;4.28;;;15.10;75.20;;;;;;5008608;28;20030;-71
2023/04/21 09:44:05;;;;;;;5.30;3.42;;;15.10;75.10;;;;;;5009426;28;20442;-71
2023/04/21 09:46:35;;;;;;;7.40;5.05;;;15.10;75.00;;;;;;5008582;28;20113;-70
2023/04/21 09:49:03;;;;;;;9.25;4.75;;;15.20;75.00;;;;;;4991085;28;20164;-71
2023/04/21 09:51:30;;;;;;;9.48;4.72;;;15.30;74.90;;;;;;4974029;28;20074;-70
2023/04/21 09:53:59;;;;;;;10.98;5.93;;;15.30;74.70;;;;;;4993970;28;20026;-70
2023/04/21 09:56:27;;;;;;;8.55;5.22;;;15.30;74.70;;;;;;5009205;28;20030;-70
2023/04/21 09:58:56;;;;;;;8.25;4.97;;;15.30;74.70;;;;;;5008988;28;20194;-70
2023/04/21 10:01:25;;;;;;;9.15;6.13;;;15.30;74.60;;;;;;5005441;28;20116;-70
2023/04/21 10:03:52;;;;;;;7.40;4.85;;;15.50;74.70;;;;;;4988666;28;20030;-69
2023/04/21 10:06:18;;;;;;;9.70;5.43;;;15.60;74.30;;;;;;5008330;28;20377;-69
2023/04/21 10:08:45;;;;;;;9.05;5.65;;;15.70;74.10;;;;;;5008649;28;20025;-69
2023/04/21 10:11:12;;;;;;;13.98;6.30;;;15.80;73.80;;;;;;5000408;28;20037;-69
2023/04/21 10:13:40;;;;;;;9.27;5.03;;;15.80;73.50;;;;;;4986321;28;20061;-70
2023/04/21 10:16:09;;;;;;;8.77;5.75;;;15.90;73.40;;;;;;5004845;28;20016;-70
2023/04/21 10:18:45;;;;;;;6.03;4.57;;;16.00;73.30;;;;;;5011927;28;20437;-69
2023/04/21 10:21:12;;;;;;;8.20;4.90;;;16.10;73.10;;;;;;5008589;28;20125;-70
2023/04/21 10:23:42;;;;;;;14.27;5.85;;;16.30;72.90;;;;;;5008959;28;20652;-70
2023/04/21 10:26:19;;;;;;;11.13;5.72;;;16.30;72.60;;;;;;4993340;28;20022;-69
2023/04/21 10:29:02;;;;;;;7.47;4.68;;;16.40;72.40;;;;;;4990779;28;20033;-70
2023/04/21 10:31:33;;;;;;;9.48;4.63;;;16.50;72.30;;;;;;5008061;28;20061;-70
2023/04/21 10:34:08;;;;;;;5.88;3.75;;;16.60;72.20;;;;;;5009049;28;20129;-70
2023/04/21 10:36:34;;;;;;;10.32;4.95;;;16.80;71.80;;;;;;5002275;28;20413;-70
2023/04/21 10:39:04;;;;;;;6.88;4.55;;;17.00;71.40;;;;;;5007092;28;20030;-70
2023/04/21 10:41:34;;;;;;;8.40;4.38;;;17.10;70.90;;;;;;4990003;28;20034;-70
2023/04/21 10:44:06;;;;;;;6.97;4.78;;;17.30;70.80;;;;;;5006268;28;20028;-70
2023/04/21 10:46:45;;;;;;;9.93;5.38;;;17.40;70.30;;;;;;5004141;28;20049;-70
2023/04/21 10:49:20;;;;;;;9.75;4.88;;;17.50;70.00;;;;;;5005608;28;22389;-69
2023/04/21 10:52:01;;;;;;;14.02;5.15;;;17.70;70.00;;;;;;5008383;28;20022;-70
2023/04/21 10:54:47;;;;;;;6.95;4.43;;;17.70;69.50;;;;;;4989643;28;20030;-70
2023/04/21 10:57:18;;;;;;;7.53;4.68;;;17.70;69.40;;;;;;4992647;28;20078;-70
2023/04/21 10:59:44;;;;;;;8.57;3.97;;;17.60;69.50;;;;;;4991897;28;20464;-69
2023/04/21 11:02:12;;;;;;;7.03;4.07;;;17.60;69.50;;;;;;5005043;28;20109;-69
2023/04/21 11:04:40;;;;;;;7.85;4.72;;;17.60;69.30;;;;;;4980992;28;20058;-69
2023/04/21 11:07:17;;;;;;;8.90;5.25;;;17.60;69.20;;;;;;4968314;28;20090;-69
2023/04/21 11:09:45;;;;;;;7.95;4.30;;;17.40;69.00;;;;;;4963962;28;20023;-69
2023/04/21 11:12:12;;;;;;;6.85;4.13;;;17.30;69.50;;;;;;4962960;28;20078;-69
2023/04/21 11:14:40;;;;;;;9.60;4.45;;;17.20;69.80;;;;;;4970190;28;20477;-69
2023/04/21 11:17:17;;;;;;;10.30;5.38;;;17.10;69.90;;;;;;4966790;28;20421;-69
2023/04/21 11:19:48;;;;;;;8.95;5.05;;;17.10;69.60;;;;;;4968313;28;20058;-69
2023/04/21 11:22:15;;;;;;;6.07;4.00;;;17.10;69.70;;;;;;4965838;28;20102;-69
2023/04/21 11:24:45;;;;;;;6.15;4.03;;;17.10;69.60;;;;;;4961931;28;20038;-69
2023/04/21 11:27:13;;;;;;;7.03;4.22;;;17.20;69.50;;;;;;4969862;28;20033;-69
2023/04/21 11:29:39;;;;;;;9.57;5.13;;;17.30;69.30;;;;;;4968936;28;20031;-69
2023/04/21 11:32:06;;;;;;;7.53;4.05;;;17.30;68.90;;;;;;4968965;28;20030;-69
2023/04/21 11:34:32;;;;;;;7.68;3.85;;;17.50;68.80;;;;;;4968587;28;20465;-69
2023/04/21 11:36:57;;;;;;;8.88;4.65;;;17.80;68.50;;;;;;4969173;28;20110;-69
2023/04/21 11:39:23;;;;;;;5.85;4.35;;;18.10;67.70;;;;;;4970631;28;20031;-69
2023/04/21 11:41:50;;;;;;;6.35;4.65;;;18.30;67.40;;;;;;4968538;28;20070;-70
2023/04/21 11:44:40;;;;;;;7.25;4.53;;;18.30;67.00;;;;;;4966569;28;20421;-70
2023/04/21 11:47:16;;;;;;;8.23;4.90;;;18.30;66.90;;;;;;4937487;28;20125;-69
2023/04/21 11:49:49;;;;;;;6.93;4.13;;;18.40;66.90;;;;;;4963881;28;20524;-70
2023/04/21 11:52:27;;;;;;;7.90;3.45;;;18.50;66.70;;;;;;4968685;28;20027;-69
2023/04/21 11:55:02;;;;;;;7.70;4.10;;;18.60;66.30;;;;;;4963185;28;20561;-70
2023/04/21 11:57:29;;;;;;;10.32;5.05;;;18.70;66.20;;;;;;4970841;28;20529;-69
2023/04/21 12:00:05;;;;;;;9.30;5.60;;;18.90;65.70;;;;;;4965320;28;20438;-69
2023/04/21 12:02:32;;;;;;;6.93;4.63;;;18.90;65.60;;;;;;4965312;28;20026;-69
2023/04/21 12:05:03;;;;;;;8.93;5.05;;;19.00;65.60;;;;;;4985966;28;20459;-69
2023/04/21 12:07:30;;;;;;;6.03;3.60;;;18.90;65.30;;;;;;5003621;28;20038;-69
2023/04/21 12:09:56;;;;;;;5.68;3.60;;;18.80;65.40;;;;;;5003078;28;20026;-69
2023/04/21 12:12:25;;;;;;;9.35;5.00;;;18.70;65.50;;;;;;5008702;28;20095;-68
2023/04/21 12:14:52;;;;;;;7.25;4.30;;;18.60;65.40;;;;;;4980780;28;20454;-69
2023/04/21 12:17:18;;;;;;;8.68;4.85;;;18.50;65.50;;;;;;4999063;28;20032;-69
2023/04/21 12:19:44;;;;;;;7.65;4.65;;;18.30;65.70;;;;;;4999017;28;20040;-69
2023/04/21 12:22:17;;;;;;;7.07;4.63;;;18.20;65.80;;;;;;5001755;28;20030;-69
2023/04/21 12:24:43;;;;;;;9.50;5.50;;;18.00;66.10;;;;;;5004511;28;20404;-69
2023/04/21 12:27:09;;;;;;;10.70;3.95;;;17.80;66.50;;;;;;5002941;28;20069;-69
2023/04/21 12:29:37;;;;;;;8.35;3.55;;;17.60;66.80;;;;;;5006207;28;20065;-69
2023/04/21 12:32:07;;;;;;;7.70;4.90;;;17.50;67.10;;;;;;5005380;28;20394;-69
2023/04/21 12:34:33;;;;;;;7.47;4.35;;;17.50;67.40;;;;;;4997052;28;20022;-69
2023/04/21 12:36:58;;;;;;;10.30;3.90;;;17.60;67.30;;;;;;5008451;28;20084;-69
2023/04/21 12:39:24;;;;;;;7.07;4.38;;;17.80;67.20;;;;;;5006699;28;20033;-69
2023/04/21 12:41:50;;;;;;;7.07;4.93;;;18.00;67.30;;;;;;5001872;28;20026;-69
2023/04/21 12:44:16;;;;;;;7.53;4.40;;;18.20;66.10;;;;;;4980373;28;20893;-69